createdAt,value
2016-07-18T07:54:59.072Z,48
2016-07-18T07:55:58.384Z,40
2016-07-18T07:56:57.697Z,0
2016-07-18T07:57:57.725Z,0
2016-07-18T07:58:59.159Z,0
2016-07-18T07:59:58.463Z,0
2016-07-18T08:00:57.782Z,0
2016-07-18T08:01:58.498Z,0
2016-07-18T08:02:58.545Z,0
2016-07-18T08:03:59.679Z,0
2016-07-18T08:04:58.567Z,0
2016-07-18T08:05:57.875Z,0
2016-07-18T08:06:57.893Z,0
2016-07-18T08:07:57.914Z,0
2016-07-18T08:08:58.850Z,0
2016-07-18T08:09:59.369Z,0
2016-07-18T08:10:58.674Z,0
2016-07-18T08:11:58.006Z,0
2016-07-18T08:12:58.013Z,0
2016-07-18T08:13:58.747Z,0
2016-07-18T08:14:58.051Z,0
2016-07-18T08:15:58.782Z,0
2016-07-18T08:16:59.245Z,8
2016-07-18T08:17:58.109Z,52
2016-07-18T08:18:58.842Z,60
2016-07-18T08:19:58.150Z,36
2016-07-18T08:20:59.589Z,348
2016-07-18T08:21:58.898Z,32
2016-07-18T08:22:58.204Z,48
2016-07-18T08:23:58.935Z,48
2016-07-18T08:24:58.240Z,52
2016-07-18T08:25:58.258Z,52
2016-07-18T08:26:58.276Z,52
2016-07-18T08:27:58.300Z,48
2016-07-18T08:28:58.317Z,48
2016-07-18T08:29:59.756Z,48
2016-07-18T08:30:58.351Z,44
2016-07-18T08:31:59.083Z,48
2016-07-18T08:32:59.101Z,48
2016-07-18T08:33:59.118Z,44
2016-07-18T08:34:59.147Z,40
2016-07-18T08:35:59.153Z,40
2016-07-18T08:36:59.175Z,44
2016-07-18T08:37:58.486Z,40
2016-07-18T08:38:59.922Z,40
2016-07-18T08:39:59.936Z,40
2016-07-18T08:40:59.248Z,40
2016-07-18T08:41:58.559Z,40
2016-07-18T08:42:59.994Z,36
2016-07-18T08:43:58.595Z,152
2016-07-18T08:44:59.328Z,72
2016-07-18T08:45:58.640Z,208
2016-07-18T08:46:59.358Z,372
2016-07-18T08:47:59.393Z,96
2016-07-18T08:48:59.397Z,40
2016-07-18T08:49:59.415Z,0
2016-07-18T08:50:58.724Z,0
2016-07-18T08:51:58.737Z,0
2016-07-18T08:52:58.771Z,0
2016-07-18T08:53:58.777Z,0
2016-07-18T08:54:58.801Z,0
2016-07-18T08:55:58.819Z,0
2016-07-18T08:56:59.544Z,0
2016-07-18T08:57:58.875Z,0
2016-07-18T08:58:59.581Z,0
2016-07-18T08:59:58.892Z,0
2016-07-18T09:00:58.910Z,0
2016-07-18T09:01:59.636Z,0
2016-07-18T09:02:58.945Z,0
2016-07-18T09:04:00.383Z,0
2016-07-18T09:04:59.698Z,0
2016-07-18T09:05:59.000Z,0
2016-07-18T09:07:00.440Z,0
2016-07-18T09:07:59.043Z,0
2016-07-18T09:08:59.059Z,0
2016-07-18T09:09:59.075Z,0
2016-07-18T09:10:59.803Z,0
2016-07-18T09:12:00.530Z,0
2016-07-18T09:12:59.840Z,0
2016-07-18T09:13:59.858Z,0
2016-07-18T09:14:59.877Z,48
2016-07-18T09:15:59.186Z,328
2016-07-18T09:16:59.199Z,372
2016-07-18T09:17:59.925Z,388
2016-07-18T09:18:59.945Z,392
2016-07-18T09:19:59.965Z,392
2016-07-18T09:21:00.701Z,352
2016-07-18T09:21:59.310Z,368
2016-07-18T09:22:59.314Z,320
2016-07-18T09:24:00.040Z,380
2016-07-18T09:25:00.763Z,380
2016-07-18T09:25:59.422Z,376
2016-07-18T09:27:00.815Z,376
2016-07-18T09:27:59.406Z,364
2016-07-18T09:28:59.428Z,376
2016-07-18T09:30:00.854Z,376
2016-07-18T09:30:59.464Z,376
2016-07-18T09:31:59.485Z,372
2016-07-18T09:32:59.496Z,368
2016-07-18T09:33:59.524Z,384
2016-07-18T09:34:59.534Z,372
2016-07-18T09:35:59.569Z,376
2016-07-18T09:37:00.279Z,376
2016-07-18T09:38:01.014Z,376
2016-07-18T09:38:59.613Z,308
2016-07-18T09:40:00.341Z,376
2016-07-18T09:41:00.405Z,368
2016-07-18T09:42:00.374Z,0
2016-07-18T09:42:59.686Z,0
2016-07-18T09:43:59.709Z,0
2016-07-18T09:45:00.430Z,0
2016-07-18T09:46:01.156Z,0
2016-07-18T09:47:01.180Z,0
2016-07-18T09:47:59.779Z,0
2016-07-18T09:49:01.210Z,0
2016-07-18T09:50:01.232Z,0
2016-07-18T09:51:00.541Z,0
2016-07-18T09:51:59.852Z,0
2016-07-18T09:52:59.867Z,0
2016-07-18T09:53:59.889Z,0
2016-07-18T09:55:01.327Z,0
2016-07-18T09:56:00.633Z,0
2016-07-18T09:56:59.951Z,0
2016-07-18T09:57:59.973Z,0
2016-07-18T09:58:59.979Z,0
2016-07-18T10:00:00.708Z,0
2016-07-18T10:01:00.024Z,0
2016-07-18T10:02:00.037Z,0
2016-07-18T10:03:00.064Z,0
2016-07-18T10:04:00.782Z,0
2016-07-18T10:05:00.799Z,0
2016-07-18T10:06:01.529Z,0
2016-07-18T10:07:00.839Z,0
2016-07-18T10:08:00.861Z,0
2016-07-18T10:09:00.874Z,0
2016-07-18T10:10:01.600Z,0
2016-07-18T10:11:00.201Z,0
2016-07-18T10:12:00.936Z,0
2016-07-18T10:13:00.957Z,0
2016-07-18T10:14:01.677Z,0
2016-07-18T10:15:00.279Z,0
2016-07-18T10:16:01.004Z,0
2016-07-18T10:17:00.313Z,0
2016-07-18T10:18:01.037Z,0
2016-07-18T10:19:00.349Z,0
2016-07-18T10:20:01.091Z,0
2016-07-18T10:21:00.381Z,0
2016-07-18T10:22:00.406Z,0
2016-07-18T10:23:00.417Z,0
2016-07-18T10:24:00.442Z,0
2016-07-18T10:25:00.459Z,0
2016-07-18T10:26:00.477Z,0
2016-07-18T10:27:01.207Z,0
2016-07-18T10:28:01.223Z,0
2016-07-18T10:29:01.962Z,0
2016-07-18T10:30:00.551Z,0
2016-07-18T10:31:01.282Z,0
2016-07-18T10:32:00.584Z,0
2016-07-18T10:33:01.315Z,0
2016-07-18T10:34:00.624Z,0
2016-07-18T10:35:00.639Z,0
2016-07-18T10:36:00.672Z,0
2016-07-18T10:37:00.683Z,0
2016-07-18T10:38:01.410Z,0
2016-07-18T10:39:02.130Z,0
2016-07-18T10:40:01.444Z,0
2016-07-18T10:41:00.751Z,0
2016-07-18T10:42:02.194Z,0
2016-07-18T10:43:00.797Z,0
2016-07-18T10:44:00.810Z,0
2016-07-18T10:45:00.825Z,0
2016-07-18T10:46:02.260Z,0
2016-07-18T10:47:00.869Z,0
2016-07-18T10:48:00.887Z,0
2016-07-18T10:49:02.318Z,0
2016-07-18T10:50:01.626Z,0
2016-07-18T10:51:01.648Z,0
2016-07-18T10:52:01.668Z,0
2016-07-18T10:53:00.969Z,0
2016-07-18T10:54:00.995Z,0
2016-07-18T10:55:01.008Z,0
2016-07-18T10:56:01.739Z,0
2016-07-18T10:57:01.047Z,0
2016-07-18T10:58:01.062Z,0
2016-07-18T10:59:01.790Z,0
2016-07-18T11:00:02.558Z,0
2016-07-18T11:01:03.247Z,0
2016-07-18T11:02:01.844Z,0
2016-07-18T11:03:01.865Z,0
2016-07-18T11:04:01.169Z,0
2016-07-18T11:05:01.215Z,0
2016-07-18T11:06:01.955Z,0
2016-07-18T11:07:01.257Z,0
2016-07-18T11:08:01.247Z,0
2016-07-18T11:09:01.267Z,0
2016-07-18T11:10:01.996Z,0
2016-07-18T11:11:02.016Z,0
2016-07-18T11:12:02.028Z,0
2016-07-18T11:13:01.339Z,0
2016-07-18T11:14:01.357Z,0
2016-07-18T11:15:02.087Z,0
2016-07-18T11:16:01.399Z,0
2016-07-18T11:17:01.427Z,0
2016-07-18T11:18:01.438Z,0
2016-07-18T11:19:02.152Z,0
2016-07-18T11:20:01.470Z,0
2016-07-18T11:21:01.484Z,0
2016-07-18T11:22:02.215Z,0
2016-07-18T11:23:02.235Z,0
2016-07-18T11:24:01.541Z,0
2016-07-18T11:25:01.569Z,0
2016-07-18T11:26:02.285Z,0
2016-07-18T11:27:01.594Z,0
2016-07-18T11:28:01.612Z,0
2016-07-18T11:29:02.342Z,0
2016-07-18T11:30:01.668Z,0
2016-07-18T11:31:02.377Z,0
2016-07-18T11:32:02.393Z,0
2016-07-18T11:33:03.129Z,0
2016-07-18T11:34:01.718Z,0
2016-07-18T11:35:02.455Z,0
2016-07-18T11:36:03.177Z,4
2016-07-18T11:37:03.197Z,0
2016-07-18T11:38:01.798Z,0
2016-07-18T11:39:02.525Z,0
2016-07-18T11:40:03.248Z,0
2016-07-18T11:41:01.855Z,0
2016-07-18T11:42:02.583Z,0
2016-07-18T11:43:02.600Z,0
2016-07-18T11:44:01.904Z,0
2016-07-18T11:45:01.928Z,0
2016-07-18T11:46:01.948Z,4
2016-07-18T11:47:02.672Z,4
2016-07-18T11:48:01.980Z,4
2016-07-18T11:49:02.707Z,0
2016-07-18T11:50:02.025Z,0
2016-07-18T11:51:02.032Z,0
2016-07-18T11:52:02.763Z,0
2016-07-18T11:53:02.787Z,4
2016-07-18T11:54:02.804Z,4
2016-07-18T11:55:02.825Z,4
2016-07-18T11:56:03.540Z,4
2016-07-18T11:57:02.148Z,4
2016-07-18T11:58:02.870Z,8
2016-07-18T11:59:02.890Z,4
2016-07-18T12:00:03.616Z,4
2016-07-18T12:01:02.922Z,0
2016-07-18T12:02:02.241Z,0
2016-07-18T12:03:02.961Z,0
2016-07-18T12:04:02.992Z,0
2016-07-18T12:05:03.000Z,4
2016-07-18T12:06:02.311Z,4
2016-07-18T12:07:03.040Z,4
2016-07-18T12:08:02.345Z,8
2016-07-18T12:09:03.074Z,8
2016-07-18T12:10:02.380Z,4
2016-07-18T12:11:02.403Z,4
2016-07-18T12:12:02.428Z,8
2016-07-18T12:13:03.150Z,4
2016-07-18T12:14:02.466Z,4
2016-07-18T12:15:02.470Z,0
2016-07-18T12:16:03.206Z,0
2016-07-18T12:17:03.217Z,0
2016-07-18T12:18:02.531Z,0
2016-07-18T12:19:03.268Z,4
2016-07-18T12:20:03.281Z,4
2016-07-18T12:21:02.581Z,0
2016-07-18T12:22:03.311Z,0
2016-07-18T12:23:03.325Z,4
2016-07-18T12:24:03.352Z,4
2016-07-18T12:25:03.362Z,4
2016-07-18T12:26:03.382Z,4
2016-07-18T12:27:02.693Z,0
2016-07-18T12:28:02.713Z,0
2016-07-18T12:29:02.725Z,4
2016-07-18T12:30:03.457Z,4
2016-07-18T12:31:02.760Z,0
2016-07-18T12:32:02.784Z,4
2016-07-18T12:33:03.524Z,4
2016-07-18T12:34:03.527Z,4
2016-07-18T12:35:02.838Z,8
2016-07-18T12:36:03.564Z,8
2016-07-18T12:37:03.598Z,8
2016-07-18T12:38:04.308Z,8
2016-07-18T12:39:02.922Z,8
2016-07-18T12:40:03.659Z,8
2016-07-18T12:41:03.658Z,8
2016-07-18T12:42:04.385Z,8
2016-07-18T12:43:02.983Z,8
2016-07-18T12:44:04.419Z,0
2016-07-18T12:45:03.031Z,0
2016-07-18T12:46:03.088Z,0
2016-07-18T12:47:03.768Z,4
2016-07-18T12:48:03.790Z,4
2016-07-18T12:49:04.514Z,4
2016-07-18T12:50:03.884Z,4
2016-07-18T12:51:03.140Z,4
2016-07-18T12:52:03.149Z,8
2016-07-18T12:53:03.170Z,8
2016-07-18T12:54:03.893Z,8
2016-07-18T12:55:04.637Z,8
2016-07-18T12:56:03.221Z,4
2016-07-18T12:57:03.967Z,8
2016-07-18T12:58:03.968Z,4
2016-07-18T12:59:03.293Z,4
2016-07-18T13:00:04.721Z,8
2016-07-18T13:01:04.023Z,4
2016-07-18T13:02:03.331Z,4
2016-07-18T13:03:04.062Z,4
2016-07-18T13:04:03.375Z,4
2016-07-18T13:05:03.389Z,4
2016-07-18T13:06:03.416Z,8
2016-07-18T13:07:04.148Z,4
2016-07-18T13:08:04.157Z,0
2016-07-18T13:09:03.459Z,4
2016-07-18T13:10:03.486Z,4
2016-07-18T13:11:04.919Z,4
2016-07-18T13:12:03.522Z,4
2016-07-18T13:13:03.529Z,4
2016-07-18T13:14:03.549Z,0
2016-07-18T13:15:05.000Z,0
2016-07-18T13:16:03.585Z,8
2016-07-18T13:17:05.026Z,0
2016-07-18T13:18:04.334Z,4
2016-07-18T13:19:04.352Z,0
2016-07-18T13:20:04.372Z,0
2016-07-18T13:21:05.100Z,4
2016-07-18T13:22:03.697Z,8
2016-07-18T13:23:04.425Z,8
2016-07-18T13:24:03.742Z,8
2016-07-18T13:25:03.750Z,8
2016-07-18T13:26:03.778Z,4
2016-07-18T13:27:03.794Z,4
2016-07-18T13:28:03.807Z,8
2016-07-18T13:29:03.833Z,8
2016-07-18T13:30:03.843Z,8
2016-07-18T13:31:04.566Z,8
2016-07-18T13:32:03.892Z,4
2016-07-18T13:33:03.897Z,4
2016-07-18T13:34:03.919Z,4
2016-07-18T13:35:06.059Z,8
2016-07-18T13:36:04.660Z,4
2016-07-18T13:37:03.976Z,4
2016-07-18T13:38:04.716Z,8
2016-07-18T13:39:04.717Z,8
2016-07-18T13:40:04.733Z,4
2016-07-18T13:41:04.758Z,4
2016-07-18T13:42:05.474Z,4
2016-07-18T13:43:04.794Z,0
2016-07-18T13:44:04.099Z,4
2016-07-18T13:45:04.126Z,0
2016-07-18T13:46:04.844Z,0
2016-07-18T13:47:04.864Z,0
2016-07-18T13:48:04.879Z,0
2016-07-18T13:49:04.187Z,0
2016-07-18T13:50:04.927Z,0
2016-07-18T13:51:04.223Z,0
2016-07-18T13:52:04.966Z,0
2016-07-18T13:53:04.972Z,0
2016-07-18T13:54:04.987Z,4
2016-07-18T13:55:05.721Z,4
2016-07-18T13:56:05.022Z,4
2016-07-18T13:57:05.040Z,4
2016-07-18T13:58:04.353Z,4
2016-07-18T13:59:04.375Z,4
2016-07-18T14:00:05.099Z,4
2016-07-18T14:01:05.837Z,4
2016-07-18T14:02:04.431Z,0
2016-07-18T14:03:05.153Z,0
2016-07-18T14:04:04.467Z,0
2016-07-18T14:05:04.477Z,4
2016-07-18T14:06:05.211Z,0
2016-07-18T14:07:05.224Z,0
2016-07-18T14:08:04.534Z,0
2016-07-18T14:09:05.273Z,0
2016-07-18T14:10:04.572Z,0
2016-07-18T14:11:05.559Z,0
2016-07-18T14:12:04.620Z,0
2016-07-18T14:13:05.340Z,0
2016-07-18T14:14:04.643Z,0
2016-07-18T14:15:04.661Z,0
2016-07-18T14:16:04.687Z,0
2016-07-18T14:17:05.409Z,0
2016-07-18T14:18:05.421Z,0
2016-07-18T14:19:04.745Z,0
2016-07-18T14:20:04.752Z,0
2016-07-18T14:21:04.774Z,0
2016-07-18T14:22:05.494Z,0
2016-07-18T14:23:05.517Z,0
2016-07-18T14:24:05.539Z,0
2016-07-18T14:25:04.845Z,0
2016-07-18T14:26:04.868Z,0
2016-07-18T14:27:04.884Z,0
2016-07-18T14:28:04.905Z,0
2016-07-18T14:29:04.915Z,0
2016-07-18T14:30:04.935Z,0
2016-07-18T14:31:04.958Z,0
2016-07-18T14:32:05.674Z,0
2016-07-18T14:33:06.421Z,0
2016-07-18T14:34:06.423Z,0
2016-07-18T14:35:05.025Z,0
2016-07-18T14:36:05.045Z,0
2016-07-18T14:37:05.063Z,0
2016-07-18T14:38:05.792Z,0
2016-07-18T14:39:05.096Z,0
2016-07-18T14:40:05.123Z,0
2016-07-18T14:41:05.849Z,0
2016-07-18T14:42:05.151Z,0
2016-07-18T14:43:05.172Z,0
2016-07-18T14:44:05.185Z,0
2016-07-18T14:45:05.211Z,0
2016-07-18T14:46:05.939Z,0
2016-07-18T14:47:05.243Z,0
2016-07-18T14:48:05.978Z,0
2016-07-18T14:49:06.703Z,0
2016-07-18T14:50:05.298Z,0
2016-07-18T14:51:05.328Z,0
2016-07-18T14:52:05.346Z,0
2016-07-18T14:53:06.066Z,0
2016-07-18T14:54:05.372Z,0
2016-07-18T14:55:05.397Z,0
2016-07-18T14:56:06.115Z,0
2016-07-18T14:57:05.422Z,0
2016-07-18T14:58:06.862Z,0
2016-07-18T14:59:05.462Z,0
2016-07-18T15:00:05.487Z,0
2016-07-18T15:01:06.206Z,0
2016-07-18T15:02:06.225Z,0
2016-07-18T15:03:05.534Z,0
2016-07-18T15:04:05.553Z,0
2016-07-18T15:05:06.286Z,0
2016-07-18T15:06:06.313Z,0
2016-07-18T15:07:05.608Z,0
2016-07-18T15:08:06.336Z,0
2016-07-18T15:09:05.639Z,0
2016-07-18T15:10:05.663Z,0
2016-07-18T15:11:06.393Z,0
2016-07-18T15:12:06.413Z,0
2016-07-18T15:13:05.718Z,0
2016-07-18T15:14:05.733Z,0
2016-07-18T15:15:06.474Z,0
2016-07-18T15:16:06.485Z,0
2016-07-18T15:17:06.498Z,0
2016-07-18T15:18:07.231Z,0
2016-07-18T15:19:05.839Z,0
2016-07-18T15:20:05.846Z,0
2016-07-18T15:21:05.859Z,0
2016-07-18T15:22:06.595Z,0
2016-07-18T15:23:05.905Z,0
2016-07-18T15:24:05.918Z,0
2016-07-18T15:25:06.654Z,0
2016-07-18T15:26:05.956Z,0
2016-07-18T15:27:06.680Z,0
2016-07-18T15:28:05.993Z,0
2016-07-18T15:29:06.011Z,0
2016-07-18T15:30:06.739Z,0
2016-07-18T15:31:07.464Z,0
2016-07-18T15:32:06.771Z,0
2016-07-18T15:33:06.792Z,0
2016-07-18T15:34:06.106Z,0
2016-07-18T15:35:06.828Z,0
2016-07-18T15:36:06.845Z,0
2016-07-18T15:37:06.154Z,0
2016-07-18T15:38:06.881Z,0
2016-07-18T15:39:06.186Z,0
2016-07-18T15:40:06.914Z,0
2016-07-18T15:41:06.229Z,0
2016-07-18T15:42:07.657Z,0
2016-07-18T15:43:06.973Z,4
2016-07-18T15:44:06.281Z,0
2016-07-18T15:45:06.309Z,0
2016-07-18T15:46:07.734Z,0
2016-07-18T15:47:06.335Z,0
2016-07-18T15:48:06.357Z,164
2016-07-18T15:49:07.086Z,68
2016-07-18T15:50:07.098Z,80
